sensor_id;sensor_type;location;lat;lon;timestamp;temperature;humidity
47520;DHT22;33252;48.122;11.538;2023-10-13T00:01:57;18.70;75.20
47520;DHT22;33252;48.122;11.538;2023-10-13T00:04:25;18.60;75.30
47520;DHT22;33252;48.122;11.538;2023-10-13T00:06:51;18.60;75.20
47520;DHT22;33252;48.122;11.538;2023-10-13T00:09:18;18.60;75.30
47520;DHT22;33252;48.122;11.538;2023-10-13T00:11:45;18.60;75.80
47520;DHT22;33252;48.122;11.538;2023-10-13T00:14:14;18.50;75.30
47520;DHT22;33252;48.122;11.538;2023-10-13T00:16:43;18.50;75.30
47520;DHT22;33252;48.122;11.538;2023-10-13T00:19:27;18.50;75.60
47520;DHT22;33252;48.122;11.538;2023-10-13T00:21:53;18.40;75.60
47520;DHT22;33252;48.122;11.538;2023-10-13T00:24:21;18.40;75.90
47520;DHT22;33252;48.122;11.538;2023-10-13T00:26:48;18.40;75.60
47520;DHT22;33252;48.122;11.538;2023-10-13T00:29:14;18.40;75.50
47520;DHT22;33252;48.122;11.538;2023-10-13T00:31:43;18.40;75.40
47520;DHT22;33252;48.122;11.538;2023-10-13T00:34:09;18.40;75.40
47520;DHT22;33252;48.122;11.538;2023-10-13T00:36:50;18.40;75.40
47520;DHT22;33252;48.122;11.538;2023-10-13T00:39:34;18.40;75.40
47520;DHT22;33252;48.122;11.538;2023-10-13T00:42:03;18.40;75.30
47520;DHT22;33252;48.122;11.538;2023-10-13T00:44:33;18.40;75.30
47520;DHT22;33252;48.122;11.538;2023-10-13T00:47:08;18.40;75.30
47520;DHT22;33252;48.122;11.538;2023-10-13T00:49:37;18.40;75.10
47520;DHT22;33252;48.122;11.538;2023-10-13T00:52:08;18.40;75.00
47520;DHT22;33252;48.122;11.538;2023-10-13T00:54:37;18.40;75.10
47520;DHT22;33252;48.122;11.538;2023-10-13T00:57:03;18.40;75.00
47520;DHT22;33252;48.122;11.538;2023-10-13T00:59:49;18.40;74.90
47520;DHT22;33252;48.122;11.538;2023-10-13T01:02:19;18.40;74.90
47520;DHT22;33252;48.122;11.538;2023-10-13T01:05:06;18.30;74.90
47520;DHT22;33252;48.122;11.538;2023-10-13T01:07:38;18.30;74.90
47520;DHT22;33252;48.122;11.538;2023-10-13T01:10:04;18.30;75.20
47520;DHT22;33252;48.122;11.538;2023-10-13T01:12:30;18.20;75.50
47520;DHT22;33252;48.122;11.538;2023-10-13T01:14:57;18.10;76.30
47520;DHT22;33252;48.122;11.538;2023-10-13T01:17:22;18.10;75.80
47520;DHT22;33252;48.122;11.538;2023-10-13T01:19:49;18.00;75.80
47520;DHT22;33252;48.122;11.538;2023-10-13T01:22:15;18.10;77.30
47520;DHT22;33252;48.122;11.538;2023-10-13T01:24:40;18.00;76.60
47520;DHT22;33252;48.122;11.538;2023-10-13T01:27:07;17.90;76.50
47520;DHT22;33252;48.122;11.538;2023-10-13T01:29:43;17.70;77.00
47520;DHT22;33252;48.122;11.538;2023-10-13T01:32:18;17.70;80.50
47520;DHT22;33252;48.122;11.538;2023-10-13T01:34:44;17.60;78.50
47520;DHT22;33252;48.122;11.538;2023-10-13T01:37:14;17.60;77.90
47520;DHT22;33252;48.122;11.538;2023-10-13T01:39:42;17.70;79.30
47520;DHT22;33252;48.122;11.538;2023-10-13T01:42:08;17.60;79.10
47520;DHT22;33252;48.122;11.538;2023-10-13T01:44:33;17.60;79.50
47520;DHT22;33252;48.122;11.538;2023-10-13T01:47:00;17.50;79.00
47520;DHT22;33252;48.122;11.538;2023-10-13T01:49:34;17.50;80.90
47520;DHT22;33252;48.122;11.538;2023-10-13T01:52:11;17.40;81.40
47520;DHT22;33252;48.122;11.538;2023-10-13T01:54:37;17.30;82.10
47520;DHT22;33252;48.122;11.538;2023-10-13T01:57:07;17.20;80.70
47520;DHT22;33252;48.122;11.538;2023-10-13T01:59:32;17.10;81.30
47520;DHT22;33252;48.122;11.538;2023-10-13T02:01:58;17.10;80.60
47520;DHT22;33252;48.122;11.538;2023-10-13T02:04:27;17.00;81.60
47520;DHT22;33252;48.122;11.538;2023-10-13T02:06:52;16.90;82.00
47520;DHT22;33252;48.122;11.538;2023-10-13T02:09:18;16.90;82.70
47520;DHT22;33252;48.122;11.538;2023-10-13T02:11:52;16.80;83.60
47520;DHT22;33252;48.122;11.538;2023-10-13T02:14:22;16.60;83.10
47520;DHT22;33252;48.122;11.538;2023-10-13T02:16:51;16.70;83.50
47520;DHT22;33252;48.122;11.538;2023-10-13T02:19:21;16.70;84.60
47520;DHT22;33252;48.122;11.538;2023-10-13T02:21:46;16.60;84.80
47520;DHT22;33252;48.122;11.538;2023-10-13T02:24:24;16.70;82.50
47520;DHT22;33252;48.122;11.538;2023-10-13T02:26:55;16.60;83.30
47520;DHT22;33252;48.122;11.538;2023-10-13T02:29:21;16.50;83.80
47520;DHT22;33252;48.122;11.538;2023-10-13T02:31:47;16.50;83.30
47520;DHT22;33252;48.122;11.538;2023-10-13T02:34:20;16.60;84.20
47520;DHT22;33252;48.122;11.538;2023-10-13T02:36:48;16.40;85.10
47520;DHT22;33252;48.122;11.538;2023-10-13T02:39:15;16.40;86.20
47520;DHT22;33252;48.122;11.538;2023-10-13T02:41:50;16.40;85.40
47520;DHT22;33252;48.122;11.538;2023-10-13T02:44:16;16.40;85.90
47520;DHT22;33252;48.122;11.538;2023-10-13T02:46:52;16.30;86.20
47520;DHT22;33252;48.122;11.538;2023-10-13T02:49:24;16.20;86.40
47520;DHT22;33252;48.122;11.538;2023-10-13T02:51:55;16.20;86.90
47520;DHT22;33252;48.122;11.538;2023-10-13T02:54:25;16.10;84.70
47520;DHT22;33252;48.122;11.538;2023-10-13T02:56:56;16.10;83.40
47520;DHT22;33252;48.122;11.538;2023-10-13T02:59:26;16.10;83.20
47520;DHT22;33252;48.122;11.538;2023-10-13T03:02:12;16.10;83.10
47520;DHT22;33252;48.122;11.538;2023-10-13T03:04:47;16.20;81.80
47520;DHT22;33252;48.122;11.538;2023-10-13T03:07:13;16.20;83.00
47520;DHT22;33252;48.122;11.538;2023-10-13T03:09:44;16.10;82.10
47520;DHT22;33252;48.122;11.538;2023-10-13T03:12:17;16.00;84.60
47520;DHT22;33252;48.122;11.538;2023-10-13T03:14:42;15.90;83.90
47520;DHT22;33252;48.122;11.538;2023-10-13T03:17:13;15.90;83.80
47520;DHT22;33252;48.122;11.538;2023-10-13T03:19:45;15.90;82.10
47520;DHT22;33252;48.122;11.538;2023-10-13T03:22:18;15.90;82.50
47520;DHT22;33252;48.122;11.538;2023-10-13T03:24:44;16.00;81.60
47520;DHT22;33252;48.122;11.538;2023-10-13T03:27:17;16.00;81.80
47520;DHT22;33252;48.122;11.538;2023-10-13T03:29:46;15.80;82.90
47520;DHT22;33252;48.122;11.538;2023-10-13T03:32:19;15.70;82.40
47520;DHT22;33252;48.122;11.538;2023-10-13T03:34:46;15.80;83.90
47520;DHT22;33252;48.122;11.538;2023-10-13T03:37:27;15.70;84.20
47520;DHT22;33252;48.122;11.538;2023-10-13T03:40:06;15.70;83.90
47520;DHT22;33252;48.122;11.538;2023-10-13T03:42:54;15.70;83.30
47520;DHT22;33252;48.122;11.538;2023-10-13T03:45:39;15.70;82.20
47520;DHT22;33252;48.122;11.538;2023-10-13T03:48:06;15.80;81.80
47520;DHT22;33252;48.122;11.538;2023-10-13T03:50:40;15.90;81.10
47520;DHT22;33252;48.122;11.538;2023-10-13T03:53:13;16.00;80.90
47520;DHT22;33252;48.122;11.538;2023-10-13T03:55:40;15.90;80.50
47520;DHT22;33252;48.122;11.538;2023-10-13T03:58:06;15.90;80.60
47520;DHT22;33252;48.122;11.538;2023-10-13T04:00:32;15.90;80.30
47520;DHT22;33252;48.122;11.538;2023-10-13T04:02:58;16.00;80.60
47520;DHT22;33252;48.122;11.538;2023-10-13T04:05:41;16.00;80.30
47520;DHT22;33252;48.122;11.538;2023-10-13T04:08:26;16.00;80.00
47520;DHT22;33252;48.122;11.538;2023-10-13T04:10:53;16.00;80.00
47520;DHT22;33252;48.122;11.538;2023-10-13T04:13:20;16.00;80.30
47520;DHT22;33252;48.122;11.538;2023-10-13T04:15:45;15.90;80.40
47520;DHT22;33252;48.122;11.538;2023-10-13T04:18:29;15.90;80.30
47520;DHT22;33252;48.122;11.538;2023-10-13T04:20:59;15.90;80.30
47520;DHT22;33252;48.122;11.538;2023-10-13T04:23:33;15.90;80.50
47520;DHT22;33252;48.122;11.538;2023-10-13T04:26:19;15.90;80.80
47520;DHT22;33252;48.122;11.538;2023-10-13T04:28:48;15.80;80.90
47520;DHT22;33252;48.122;11.538;2023-10-13T04:31:18;15.80;80.80
47520;DHT22;33252;48.122;11.538;2023-10-13T04:34:09;15.80;81.40
47520;DHT22;33252;48.122;11.538;2023-10-13T04:36:44;15.70;80.60
47520;DHT22;33252;48.122;11.538;2023-10-13T04:39:20;15.70;80.50
47520;DHT22;33252;48.122;11.538;2023-10-13T04:41:54;15.70;80.80
47520;DHT22;33252;48.122;11.538;2023-10-13T04:44:20;15.60;81.00
47520;DHT22;33252;48.122;11.538;2023-10-13T04:46:48;15.60;81.40
47520;DHT22;33252;48.122;11.538;2023-10-13T04:49:14;15.60;80.30
47520;DHT22;33252;48.122;11.538;2023-10-13T04:52:00;15.60;80.10
47520;DHT22;33252;48.122;11.538;2023-10-13T04:54:32;15.60;79.80
47520;DHT22;33252;48.122;11.538;2023-10-13T04:57:17;15.60;80.40
47520;DHT22;33252;48.122;11.538;2023-10-13T04:59:59;15.50;80.60
47520;DHT22;33252;48.122;11.538;2023-10-13T05:05:03;15.50;80.20
47520;DHT22;33252;48.122;11.538;2023-10-13T05:07:32;15.50;80.40
47520;DHT22;33252;48.122;11.538;2023-10-13T05:10:17;15.40;80.20
47520;DHT22;33252;48.122;11.538;2023-10-13T05:13:01;15.40;80.30
47520;DHT22;33252;48.122;11.538;2023-10-13T05:15:50;15.40;80.60
47520;DHT22;33252;48.122;11.538;2023-10-13T05:18:34;15.30;80.80
47520;DHT22;33252;48.122;11.538;2023-10-13T05:21:19;15.20;80.70
47520;DHT22;33252;48.122;11.538;2023-10-13T05:24:03;15.30;81.10
47520;DHT22;33252;48.122;11.538;2023-10-13T05:26:48;15.30;80.70
47520;DHT22;33252;48.122;11.538;2023-10-13T05:29:32;15.30;80.90
47520;DHT22;33252;48.122;11.538;2023-10-13T05:32:16;15.20;80.80
47520;DHT22;33252;48.122;11.538;2023-10-13T05:35:00;15.20;80.90
47520;DHT22;33252;48.122;11.538;2023-10-13T05:37:44;15.10;80.90
47520;DHT22;33252;48.122;11.538;2023-10-13T05:40:29;15.10;80.80
47520;DHT22;33252;48.122;11.538;2023-10-13T05:43:13;15.10;80.60
47520;DHT22;33252;48.122;11.538;2023-10-13T05:46:04;15.10;80.80
47520;DHT22;33252;48.122;11.538;2023-10-13T05:48:48;15.10;80.80
47520;DHT22;33252;48.122;11.538;2023-10-13T05:51:20;15.10;80.70
47520;DHT22;33252;48.122;11.538;2023-10-13T05:54:06;15.10;80.60
47520;DHT22;33252;48.122;11.538;2023-10-13T05:56:47;15.20;80.70
47520;DHT22;33252;48.122;11.538;2023-10-13T05:59:33;15.10;80.70
47520;DHT22;33252;48.122;11.538;2023-10-13T06:02:19;15.20;80.20
47520;DHT22;33252;48.122;11.538;2023-10-13T06:05:11;15.20;80.40
47520;DHT22;33252;48.122;11.538;2023-10-13T06:07:57;15.20;80.20
47520;DHT22;33252;48.122;11.538;2023-10-13T06:10:41;15.20;80.20
47520;DHT22;33252;48.122;11.538;2023-10-13T06:13:26;15.30;79.90
47520;DHT22;33252;48.122;11.538;2023-10-13T06:16:12;15.30;79.60
47520;DHT22;33252;48.122;11.538;2023-10-13T06:19:13;15.40;79.50
47520;DHT22;33252;48.122;11.538;2023-10-13T06:21:57;15.50;79.30
47520;DHT22;33252;48.122;11.538;2023-10-13T06:24:42;15.50;79.00
47520;DHT22;33252;48.122;11.538;2023-10-13T06:27:26;15.50;78.80
47520;DHT22;33252;48.122;11.538;2023-10-13T06:30:10;15.60;78.60
47520;DHT22;33252;48.122;11.538;2023-10-13T06:32:36;15.60;78.80
47520;DHT22;33252;48.122;11.538;2023-10-13T06:35:05;15.70;78.50
47520;DHT22;33252;48.122;11.538;2023-10-13T06:37:32;15.70;78.10
47520;DHT22;33252;48.122;11.538;2023-10-13T06:40:08;15.70;77.60
47520;DHT22;33252;48.122;11.538;2023-10-13T06:42:52;15.80;77.50
47520;DHT22;33252;48.122;11.538;2023-10-13T06:45:19;16.00;77.20
47520;DHT22;33252;48.122;11.538;2023-10-13T06:47:46;16.00;77.00
47520;DHT22;33252;48.122;11.538;2023-10-13T06:50:15;16.10;77.50
47520;DHT22;33252;48.122;11.538;2023-10-13T06:52:47;16.20;76.70
47520;DHT22;33252;48.122;11.538;2023-10-13T06:55:12;16.30;76.30
47520;DHT22;33252;48.122;11.538;2023-10-13T06:57:43;16.40;76.00
47520;DHT22;33252;48.122;11.538;2023-10-13T07:00:10;16.50;75.80
47520;DHT22;33252;48.122;11.538;2023-10-13T07:02:47;16.60;75.60
47520;DHT22;33252;48.122;11.538;2023-10-13T07:05:13;16.60;75.90
47520;DHT22;33252;48.122;11.538;2023-10-13T07:07:39;16.70;75.70
47520;DHT22;33252;48.122;11.538;2023-10-13T07:10:12;16.70;75.50
47520;DHT22;33252;48.122;11.538;2023-10-13T07:12:38;16.70;75.40
47520;DHT22;33252;48.122;11.538;2023-10-13T07:15:09;16.80;75.30
47520;DHT22;33252;48.122;11.538;2023-10-13T07:17:45;16.90;75.60
47520;DHT22;33252;48.122;11.538;2023-10-13T07:20:13;17.00;74.90
47520;DHT22;33252;48.122;11.538;2023-10-13T07:22:49;17.00;75.30
47520;DHT22;33252;48.122;11.538;2023-10-13T07:25:23;17.10;75.40
47520;DHT22;33252;48.122;11.538;2023-10-13T07:27:52;17.20;75.40
47520;DHT22;33252;48.122;11.538;2023-10-13T07:30:19;17.20;74.60
47520;DHT22;33252;48.122;11.538;2023-10-13T07:32:51;17.30;74.70
47520;DHT22;33252;48.122;11.538;2023-10-13T07:35:18;17.40;74.80
47520;DHT22;33252;48.122;11.538;2023-10-13T07:37:46;17.40;74.90
47520;DHT22;33252;48.122;11.538;2023-10-13T07:40:18;17.50;74.20
47520;DHT22;33252;48.122;11.538;2023-10-13T07:42:56;17.60;74.80
47520;DHT22;33252;48.122;11.538;2023-10-13T07:45:30;17.70;74.50
47520;DHT22;33252;48.122;11.538;2023-10-13T07:48:06;17.80;73.50
47520;DHT22;33252;48.122;11.538;2023-10-13T07:50:42;17.80;73.60
47520;DHT22;33252;48.122;11.538;2023-10-13T07:53:09;17.90;74.10
47520;DHT22;33252;48.122;11.538;2023-10-13T07:55:50;18.00;73.00
47520;DHT22;33252;48.122;11.538;2023-10-13T07:58:27;18.10;73.10
47520;DHT22;33252;48.122;11.538;2023-10-13T08:00:53;18.20;73.10
47520;DHT22;33252;48.122;11.538;2023-10-13T08:03:25;18.20;73.70
47520;DHT22;33252;48.122;11.538;2023-10-13T08:06:10;18.20;73.90
47520;DHT22;33252;48.122;11.538;2023-10-13T08:08:36;18.30;74.70
47520;DHT22;33252;48.122;11.538;2023-10-13T08:11:15;18.30;73.90
47520;DHT22;33252;48.122;11.538;2023-10-13T08:13:50;18.40;74.50
47520;DHT22;33252;48.122;11.538;2023-10-13T08:16:26;18.50;74.00
47520;DHT22;33252;48.122;11.538;2023-10-13T08:19:15;18.60;74.10
47520;DHT22;33252;48.122;11.538;2023-10-13T08:21:45;18.70;73.20
47520;DHT22;33252;48.122;11.538;2023-10-13T08:24:27;18.70;72.80
47520;DHT22;33252;48.122;11.538;2023-10-13T08:27:02;18.80;73.00
47520;DHT22;33252;48.122;11.538;2023-10-13T08:29:47;19.00;71.60
47520;DHT22;33252;48.122;11.538;2023-10-13T08:32:27;19.10;70.10
47520;DHT22;33252;48.122;11.538;2023-10-13T08:34:53;19.30;69.60
47520;DHT22;33252;48.122;11.538;2023-10-13T08:37:20;19.40;68.60
47520;DHT22;33252;48.122;11.538;2023-10-13T08:39:49;19.60;68.20
47520;DHT22;33252;48.122;11.538;2023-10-13T08:42:37;19.60;68.50
47520;DHT22;33252;48.122;11.538;2023-10-13T08:45:24;19.80;67.40
47520;DHT22;33252;48.122;11.538;2023-10-13T08:47:54;19.90;67.80
47520;DHT22;33252;48.122;11.538;2023-10-13T08:50:47;20.00;67.20
47520;DHT22;33252;48.122;11.538;2023-10-13T08:53:19;20.10;66.30
47520;DHT22;33252;48.122;11.538;2023-10-13T08:58:31;20.40;65.50
47520;DHT22;33252;48.122;11.538;2023-10-13T09:01:16;20.50;64.40
47520;DHT22;33252;48.122;11.538;2023-10-13T09:04:08;20.60;64.40
47520;DHT22;33252;48.122;11.538;2023-10-13T09:06:57;20.60;65.20
47520;DHT22;33252;48.122;11.538;2023-10-13T09:09:29;20.70;64.80
47520;DHT22;33252;48.122;11.538;2023-10-13T09:12:02;20.90;64.50
47520;DHT22;33252;48.122;11.538;2023-10-13T09:14:40;20.90;65.00
47520;DHT22;33252;48.122;11.538;2023-10-13T09:17:13;21.10;64.90
47520;DHT22;33252;48.122;11.538;2023-10-13T09:20:06;21.20;63.90
47520;DHT22;33252;48.122;11.538;2023-10-13T09:22:51;21.30;64.20
47520;DHT22;33252;48.122;11.538;2023-10-13T09:25:40;21.40;62.70
47520;DHT22;33252;48.122;11.538;2023-10-13T09:28:20;21.60;63.20
47520;DHT22;33252;48.122;11.538;2023-10-13T09:30:52;21.60;63.20
47520;DHT22;33252;48.122;11.538;2023-10-13T09:33:23;21.60;62.40
47520;DHT22;33252;48.122;11.538;2023-10-13T09:36:03;21.70;63.20
47520;DHT22;33252;48.122;11.538;2023-10-13T09:38:34;21.80;63.10
47520;DHT22;33252;48.122;11.538;2023-10-13T09:41:00;21.90;61.90
47520;DHT22;33252;48.122;11.538;2023-10-13T09:43:33;22.10;61.50
47520;DHT22;33252;48.122;11.538;2023-10-13T09:46:00;22.00;63.30
47520;DHT22;33252;48.122;11.538;2023-10-13T09:48:33;22.20;62.50
47520;DHT22;33252;48.122;11.538;2023-10-13T09:51:03;22.20;62.20
47520;DHT22;33252;48.122;11.538;2023-10-13T09:53:34;22.20;61.20
47520;DHT22;33252;48.122;11.538;2023-10-13T09:56:14;22.20;60.90
47520;DHT22;33252;48.122;11.538;2023-10-13T09:59:00;22.20;60.50
47520;DHT22;33252;48.122;11.538;2023-10-13T10:01:42;22.30;60.40
47520;DHT22;33252;48.122;11.538;2023-10-13T10:04:22;22.40;60.20
47520;DHT22;33252;48.122;11.538;2023-10-13T10:06:53;22.50;60.10
47520;DHT22;33252;48.122;11.538;2023-10-13T10:09:19;22.50;60.10
47520;DHT22;33252;48.122;11.538;2023-10-13T10:17:10;22.70;60.40
47520;DHT22;33252;48.122;11.538;2023-10-13T10:19:50;22.60;60.40
47520;DHT22;33252;48.122;11.538;2023-10-13T10:22:30;22.70;59.50
47520;DHT22;33252;48.122;11.538;2023-10-13T10:25:02;22.80;59.70
47520;DHT22;33252;48.122;11.538;2023-10-13T10:27:58;22.90;57.70
47520;DHT22;33252;48.122;11.538;2023-10-13T10:30:27;23.00;58.90
47520;DHT22;33252;48.122;11.538;2023-10-13T10:32:57;23.20;56.30
47520;DHT22;33252;48.122;11.538;2023-10-13T10:35:27;23.20;57.40
47520;DHT22;33252;48.122;11.538;2023-10-13T10:38:11;23.20;56.40
47520;DHT22;33252;48.122;11.538;2023-10-13T10:41:04;23.30;55.60
47520;DHT22;33252;48.122;11.538;2023-10-13T10:43:39;23.30;54.70
47520;DHT22;33252;48.122;11.538;2023-10-13T10:48:40;23.20;54.80
47520;DHT22;33252;48.122;11.538;2023-10-13T10:51:13;23.50;54.40
47520;DHT22;33252;48.122;11.538;2023-10-13T10:53:49;23.70;55.40
47520;DHT22;33252;48.122;11.538;2023-10-13T10:56:17;23.70;53.10
47520;DHT22;33252;48.122;11.538;2023-10-13T10:58:47;23.80;53.00
47520;DHT22;33252;48.122;11.538;2023-10-13T11:01:12;23.80;54.00
47520;DHT22;33252;48.122;11.538;2023-10-13T11:03:56;23.80;54.20
47520;DHT22;33252;48.122;11.538;2023-10-13T11:06:24;23.90;55.50
47520;DHT22;33252;48.122;11.538;2023-10-13T11:09:04;23.90;55.00
47520;DHT22;33252;48.122;11.538;2023-10-13T11:11:32;24.10;54.70
47520;DHT22;33252;48.122;11.538;2023-10-13T11:14:01;24.20;54.90
47520;DHT22;33252;48.122;11.538;2023-10-13T11:16:47;24.20;55.40
47520;DHT22;33252;48.122;11.538;2023-10-13T11:19:17;24.20;54.30
47520;DHT22;33252;48.122;11.538;2023-10-13T11:21:48;24.30;54.50
47520;DHT22;33252;48.122;11.538;2023-10-13T11:24:14;24.10;54.00
47520;DHT22;33252;48.122;11.538;2023-10-13T11:26:43;24.30;54.20
47520;DHT22;33252;48.122;11.538;2023-10-13T11:29:16;24.20;54.60
47520;DHT22;33252;48.122;11.538;2023-10-13T11:31:47;24.30;54.10
47520;DHT22;33252;48.122;11.538;2023-10-13T11:34:22;24.50;53.90
47520;DHT22;33252;48.122;11.538;2023-10-13T11:36:48;24.60;55.50
47520;DHT22;33252;48.122;11.538;2023-10-13T11:39:14;24.90;54.80
47520;DHT22;33252;48.122;11.538;2023-10-13T11:41:49;24.90;53.50
47520;DHT22;33252;48.122;11.538;2023-10-13T11:44:23;25.00;52.40
47520;DHT22;33252;48.122;11.538;2023-10-13T11:46:49;25.50;52.00
47520;DHT22;33252;48.122;11.538;2023-10-13T11:49:22;25.10;52.70
47520;DHT22;33252;48.122;11.538;2023-10-13T11:51:53;25.00;52.40
47520;DHT22;33252;48.122;11.538;2023-10-13T11:54:48;25.00;52.60
47520;DHT22;33252;48.122;11.538;2023-10-13T11:57:14;24.90;52.80
47520;DHT22;33252;48.122;11.538;2023-10-13T11:59:45;24.90;52.70
47520;DHT22;33252;48.122;11.538;2023-10-13T12:02:18;24.90;51.30
47520;DHT22;33252;48.122;11.538;2023-10-13T12:04:52;24.80;52.50
47520;DHT22;33252;48.122;11.538;2023-10-13T12:07:22;25.00;53.30
47520;DHT22;33252;48.122;11.538;2023-10-13T12:10:06;25.00;53.30
47520;DHT22;33252;48.122;11.538;2023-10-13T12:12:40;25.00;53.20
47520;DHT22;33252;48.122;11.538;2023-10-13T12:15:09;25.00;53.20
47520;DHT22;33252;48.122;11.538;2023-10-13T12:17:35;25.20;53.10
47520;DHT22;33252;48.122;11.538;2023-10-13T12:20:02;25.30;51.70
47520;DHT22;33252;48.122;11.538;2023-10-13T12:22:34;25.40;51.60
47520;DHT22;33252;48.122;11.538;2023-10-13T12:25:11;25.40;51.40
47520;DHT22;33252;48.122;11.538;2023-10-13T12:28:10;25.70;51.10
47520;DHT22;33252;48.122;11.538;2023-10-13T12:30:46;26.20;50.10
47520;DHT22;33252;48.122;11.538;2023-10-13T12:33:18;26.70;49.50
47520;DHT22;33252;48.122;11.538;2023-10-13T12:38:55;27.70;49.00
47520;DHT22;33252;48.122;11.538;2023-10-13T12:41:33;28.50;47.10
47520;DHT22;33252;48.122;11.538;2023-10-13T12:44:17;28.80;47.00
47520;DHT22;33252;48.122;11.538;2023-10-13T12:47:01;28.30;47.60
47520;DHT22;33252;48.122;11.538;2023-10-13T12:49:46;28.10;47.70
47520;DHT22;33252;48.122;11.538;2023-10-13T12:52:15;28.00;48.30
47520;DHT22;33252;48.122;11.538;2023-10-13T12:54:44;27.90;47.80
47520;DHT22;33252;48.122;11.538;2023-10-13T12:57:20;27.80;48.30
47520;DHT22;33252;48.122;11.538;2023-10-13T12:59:48;28.10;48.40
47520;DHT22;33252;48.122;11.538;2023-10-13T13:02:14;28.70;48.30
47520;DHT22;33252;48.122;11.538;2023-10-13T13:04:42;29.10;47.00
47520;DHT22;33252;48.122;11.538;2023-10-13T13:07:10;29.60;46.30
47520;DHT22;33252;48.122;11.538;2023-10-13T13:09:42;30.40;45.50
47520;DHT22;33252;48.122;11.538;2023-10-13T13:12:08;30.70;45.20
47520;DHT22;33252;48.122;11.538;2023-10-13T13:14:34;30.60;44.40
47520;DHT22;33252;48.122;11.538;2023-10-13T13:17:00;30.80;45.50
47520;DHT22;33252;48.122;11.538;2023-10-13T13:19:36;30.60;45.20
47520;DHT22;33252;48.122;11.538;2023-10-13T13:22:04;30.90;44.80
47520;DHT22;33252;48.122;11.538;2023-10-13T13:24:31;31.20;45.40
47520;DHT22;33252;48.122;11.538;2023-10-13T13:26:57;31.10;44.50
47520;DHT22;33252;48.122;11.538;2023-10-13T13:29:29;30.60;44.00
47520;DHT22;33252;48.122;11.538;2023-10-13T13:31:55;30.40;44.60
47520;DHT22;33252;48.122;11.538;2023-10-13T13:34:20;30.70;44.90
47520;DHT22;33252;48.122;11.538;2023-10-13T13:36:47;30.60;45.30
47520;DHT22;33252;48.122;11.538;2023-10-13T13:39:21;30.50;46.00
47520;DHT22;33252;48.122;11.538;2023-10-13T13:41:56;30.30;44.20
47520;DHT22;33252;48.122;11.538;2023-10-13T13:44:25;29.70;44.90
47520;DHT22;33252;48.122;11.538;2023-10-13T13:47:01;28.80;45.90
47520;DHT22;33252;48.122;11.538;2023-10-13T13:49:30;28.60;47.30
47520;DHT22;33252;48.122;11.538;2023-10-13T13:52:06;28.20;46.80
47520;DHT22;33252;48.122;11.538;2023-10-13T13:54:31;28.10;47.20
47520;DHT22;33252;48.122;11.538;2023-10-13T13:56:57;27.70;46.90
47520;DHT22;33252;48.122;11.538;2023-10-13T13:59:22;27.70;47.60
47520;DHT22;33252;48.122;11.538;2023-10-13T14:01:48;27.80;47.60
47520;DHT22;33252;48.122;11.538;2023-10-13T14:04:14;27.70;47.90
47520;DHT22;33252;48.122;11.538;2023-10-13T14:06:43;27.50;48.20
47520;DHT22;33252;48.122;11.538;2023-10-13T14:09:10;27.40;47.90
47520;DHT22;33252;48.122;11.538;2023-10-13T14:11:41;27.50;50.90
47520;DHT22;33252;48.122;11.538;2023-10-13T14:14:14;27.50;47.90
47520;DHT22;33252;48.122;11.538;2023-10-13T14:17:00;27.30;48.30
47520;DHT22;33252;48.122;11.538;2023-10-13T14:19:32;27.30;49.80
47520;DHT22;33252;48.122;11.538;2023-10-13T14:22:01;27.30;47.30
47520;DHT22;33252;48.122;11.538;2023-10-13T14:24:34;27.40;48.10
47520;DHT22;33252;48.122;11.538;2023-10-13T14:27:02;27.20;47.20
47520;DHT22;33252;48.122;11.538;2023-10-13T14:29:38;27.30;47.80
47520;DHT22;33252;48.122;11.538;2023-10-13T14:32:08;27.40;47.40
47520;DHT22;33252;48.122;11.538;2023-10-13T14:34:45;27.40;46.90
47520;DHT22;33252;48.122;11.538;2023-10-13T14:37:20;27.40;47.50
47520;DHT22;33252;48.122;11.538;2023-10-13T14:39:55;27.40;48.50
47520;DHT22;33252;48.122;11.538;2023-10-13T14:42:27;26.40;75.10
47520;DHT22;33252;48.122;11.538;2023-10-13T14:44:53;25.50;78.20
47520;DHT22;33252;48.122;11.538;2023-10-13T14:47:23;25.90;55.60
47520;DHT22;33252;48.122;11.538;2023-10-13T14:49:51;25.60;74.50
47520;DHT22;33252;48.122;11.538;2023-10-13T14:52:20;25.10;73.80
47520;DHT22;33252;48.122;11.538;2023-10-13T14:54:47;24.80;73.60
47520;DHT22;33252;48.122;11.538;2023-10-13T14:57:16;24.70;73.00
47520;DHT22;33252;48.122;11.538;2023-10-13T14:59:41;24.60;72.40
47520;DHT22;33252;48.122;11.538;2023-10-13T15:02:09;24.70;67.20
47520;DHT22;33252;48.122;11.538;2023-10-13T15:04:35;24.90;68.50
47520;DHT22;33252;48.122;11.538;2023-10-13T15:07:01;25.10;67.70
47520;DHT22;33252;48.122;11.538;2023-10-13T15:09:33;25.00;62.50
47520;DHT22;33252;48.122;11.538;2023-10-13T15:11:58;25.00;66.30
47520;DHT22;33252;48.122;11.538;2023-10-13T15:14:24;24.80;58.90
47520;DHT22;33252;48.122;11.538;2023-10-13T15:16:50;25.00;56.80
47520;DHT22;33252;48.122;11.538;2023-10-13T15:19:17;25.40;56.60
47520;DHT22;33252;48.122;11.538;2023-10-13T15:21:43;25.50;55.00
47520;DHT22;33252;48.122;11.538;2023-10-13T15:24:14;25.90;51.40
47520;DHT22;33252;48.122;11.538;2023-10-13T15:26:40;25.90;51.60
47520;DHT22;33252;48.122;11.538;2023-10-13T15:29:10;25.70;56.20
47520;DHT22;33252;48.122;11.538;2023-10-13T15:31:40;25.50;56.10
47520;DHT22;33252;48.122;11.538;2023-10-13T15:34:12;25.50;56.30
47520;DHT22;33252;48.122;11.538;2023-10-13T15:36:42;25.30;57.20
47520;DHT22;33252;48.122;11.538;2023-10-13T15:39:12;25.20;57.80
47520;DHT22;33252;48.122;11.538;2023-10-13T15:41:41;24.90;60.00
47520;DHT22;33252;48.122;11.538;2023-10-13T15:44:14;24.60;61.70
47520;DHT22;33252;48.122;11.538;2023-10-13T15:46:40;24.40;61.70
47520;DHT22;33252;48.122;11.538;2023-10-13T15:49:07;24.30;61.80
47520;DHT22;33252;48.122;11.538;2023-10-13T15:51:33;24.20;61.10
47520;DHT22;33252;48.122;11.538;2023-10-13T15:54:03;24.00;62.10
47520;DHT22;33252;48.122;11.538;2023-10-13T15:56:29;23.90;63.90
47520;DHT22;33252;48.122;11.538;2023-10-13T15:59:00;23.70;64.00
47520;DHT22;33252;48.122;11.538;2023-10-13T16:01:26;23.50;64.70
47520;DHT22;33252;48.122;11.538;2023-10-13T16:03:52;23.30;65.20
47520;DHT22;33252;48.122;11.538;2023-10-13T16:06:18;23.30;63.80
47520;DHT22;33252;48.122;11.538;2023-10-13T16:08:45;23.10;64.70